Chippewa, MI

3:54 AM EDT on August 22, 2017 (GMT -0400)
Chippewa County International | | Change Station

Elev 797 ft 46.25 °N, 84.47 °W | Updated 15 minutes ago

Overcast
Overcast
68 °F
Feels Like 68 °F
N
5
Wind Variable Wind from South

Today
High -- | Low -- °F
--% Chance of Precip.
Yesterday
High -- | Low -- °F
Precip. -- in
Pressure 29.70 in
Visibility 5.0 miles
Clouds Mostly Cloudy 900 ft
Overcast 1600 ft
Dew Point 66 °F
Humidity 94%
Rainfall 0.00 in
Snow Depth Not available.
6:46 AM 8:34 PM
New Moon, 0% visible
SPECI KCIU 220739Z AUTO 18004KT 5SM BR BKN009 OVC016 20/19 A2970 RMK AO2 PNO $
Pressure 29.70 in
Visibility 5.0 miles
Clouds Mostly Cloudy 900 ft
Overcast 1600 ft
Dew Point 66 °F
Humidity 94%
Rainfall 0.00 in
Snow Depth Not available.
6:46 AM 8:34 PM
New Moon, 0% visible
SPECI KCIU 220739Z AUTO 18004KT 5SM BR BKN009 OVC016 20/19 A2970 RMK AO2 PNO $

Get Severe Weather Alerts

Thanks for signing up!

Be on the lookout for a verification email in your inbox.

You'll start receiving the daily forecast at 6 AM.

×

10-Day Weather Forecast

Almanac

Astronomy

Aug. 22, 2017 Rise Set
Actual Time
Civil Twilight
Nautical Twilight
Astronomical Twilight
Moon
Length of Visible Light
Length of Day
Tomorrow will be .
, % of the Moon is Illuminated

Today's Extremes

State Highs State Lows

Community

WunderPhotos

Category 6

Welcome to Category 6. This is the collective home for Weather Underground's featured writeups by Dr. Jeff Masters (right), Bob Henson (left), Chris Burt, and other regular contributors.

Nearby

Air Quality

  Air Quality AQ Index Pollutant
Not available.

Snow Depth

Station Depth Elevation

Earthquake Activity

City Distance Mag. Time & Date
Minimum magnitude displayed is 2.5.

Coastal Water Temperatures

Place Temperature

Stations

Nearby Weather Stations

Station Location Temp. Windchill Dew Point Humidity Wind Precip. Elev Updated Type
                   

Watches & Warnings

There are currently no watches in effect.